^^
Station Historical Data
Daily Summary for February 15, 2018 Units:  English    Metric   Both
« Previous Day
Next Day »
Daily Weekly Monthly Yearly Custom
  High: Low: Average:
Temperature: TemperatureF °F 37.1 °F 56.7 °F
Dew Point: DewpointF °F 31.2 °F 45.5 °F
Humidity: Humidity% 30% 68%
Wind Speed: WindSpeedMPHmph 1.2mph 8.3mph
Wind Gust: WindSpeedGustMPHmph - -
Wind- - SSW
Pressure: PressureIn in 29.61 in -
Precipitation: 0.00 in    
Historical Graphs
 
 
Tabular Data for February 15, 2018
Time Temperature Dew Point Pressure Wind Wind Speed Wind Gust Humidity Rainfall Rate (Hourly)
TemperatureF °F DewpointF °F PressureIn in Calm     Humidity% HourlyPrecipIn in
00:03 57.3 °F 49.4 °F 29.77 in SSW 9.2 mph 9.2 mph 75% 0.00 in
00:08 57.3 °F 49.4 °F 29.77 in South 3.5 mph 3.5 mph 75% 0.00 in
00:13 57.3 °F 49.4 °F 29.77 in South 6.9 mph 6.9 mph 75% 0.00 in
00:18 57.2 °F 49.3 °F 29.76 in SW 3.5 mph 3.5 mph 75% 0.00 in
00:23 57.0 °F 49.5 °F 29.76 in South 6.9 mph 6.9 mph 76% 0.00 in
00:28 56.8 °F 49.3 °F 29.76 in South 5.0 mph 5.0 mph 76% 0.00 in
00:34 56.7 °F 49.6 °F 29.75 in South 12.7 mph 12.7 mph 77% 0.00 in
00:39 56.6 °F 49.8 °F 29.75 in South 3.5 mph 3.5 mph 78% 0.00 in
00:45 56.6 °F 50.2 °F 29.75 in SSW 8.1 mph 8.1 mph 79% 0.00 in
00:51 56.5 °F 50.4 °F 29.74 in SSE 7.0 mph 7.0 mph 80% 0.00 in
00:56 56.7 °F 50.9 °F 29.74 in SSW 4.6 mph 4.6 mph 81% 0.00 in
01:01 56.7 °F 50.9 °F 29.74 in SSW 5.0 mph 5.0 mph 81% 0.00 in
01:06 56.7 °F 50.9 °F 29.73 in SSW 6.9 mph 6.9 mph 81% 0.00 in
01:11 56.8 °F 51.0 °F 29.73 in South 5.0 mph 5.0 mph 81% 0.00 in
01:16 56.8 °F 51.4 °F 29.73 in SSW 5.8 mph 5.8 mph 82% 0.00 in
01:21 56.8 °F 51.4 °F 29.72 in SSW 3.5 mph 3.5 mph 82% 0.00 in
01:26 56.8 °F 51.4 °F 29.72 in South 9.0 mph 9.0 mph 82% 0.00 in
01:31 56.8 °F 51.7 °F 29.72 in South 4.6 mph 4.6 mph 83% 0.00 in
01:36 56.9 °F 52.1 °F 29.71 in South 9.2 mph 9.2 mph 84% 0.00 in
01:41 56.9 °F 52.1 °F 29.71 in SSE 8.1 mph 8.1 mph 84% 0.00 in
01:46 57.0 °F 52.2 °F 29.71 in South 8.1 mph 8.1 mph 84% 0.00 in
01:51 57.2 °F 52.7 °F 29.70 in South 10.4 mph 10.4 mph 85% 0.00 in
01:56 57.3 °F 52.8 °F 29.71 in South 10.4 mph 10.4 mph 85% 0.00 in
02:02 57.5 °F 53.0 °F 29.70 in South 11.5 mph 11.5 mph 85% 0.00 in
02:07 57.6 °F 53.1 °F 29.70 in SSE 9.2 mph 9.2 mph 85% 0.00 in
02:12 58.1 °F 53.6 °F 29.70 in SSW 10.4 mph 10.4 mph 85% 0.00 in
02:18 58.5 °F 54.0 °F 29.69 in SE 10.4 mph 10.4 mph 85% 0.00 in
02:23 58.9 °F 54.4 °F 29.69 in SSW 8.1 mph 8.1 mph 85% 0.00 in
02:28 59.1 °F 54.3 °F 29.69 in South 11.5 mph 11.5 mph 84% 0.00 in
02:33 59.3 °F 54.5 °F 29.70 in South 3.5 mph 3.5 mph 84% 0.00 in
02:38 59.3 °F 54.5 °F 29.69 in South 5.8 mph 5.8 mph 84% 0.00 in
02:43 59.2 °F 54.4 °F 29.69 in SSW 11.0 mph 11.0 mph 84% 0.00 in
02:48 59.3 °F 54.8 °F 29.69 in SSW 11.5 mph 11.5 mph 85% 0.00 in
02:53 59.4 °F 54.9 °F 29.69 in South 9.2 mph 9.2 mph 85% 0.00 in
02:59 59.4 °F 54.9 °F 29.68 in South 11.5 mph 11.5 mph 85% 0.00 in
03:04 59.3 °F 54.8 °F 29.69 in South 8.1 mph 8.1 mph 85% 0.00 in
03:09 59.1 °F 54.9 °F 29.69 in South 9.2 mph 9.2 mph 86% 0.00 in
03:14 59.0 °F 54.8 °F 29.70 in South 10.4 mph 10.4 mph 86% 0.00 in
03:19 59.1 °F 54.9 °F 29.68 in SSW 21.0 mph 21.0 mph 86% 0.00 in
03:25 59.4 °F 55.2 °F 29.68 in South 10.4 mph 10.4 mph 86% 0.00 in
03:30 59.4 °F 55.2 °F 29.68 in South 9.2 mph 9.2 mph 86% 0.00 in
03:35 59.4 °F 55.2 °F 29.68 in South 12.7 mph 12.7 mph 86% 0.00 in
03:40 59.5 °F 55.3 °F 29.68 in SW 11.5 mph 11.5 mph 86% 0.00 in
03:45 59.5 °F 55.3 °F 29.68 in South 4.6 mph 4.6 mph 86% 0.00 in
03:50 59.5 °F 55.3 °F 29.69 in South 8.1 mph 8.1 mph 86% 0.00 in
03:56 59.8 °F 55.6 °F 29.68 in SE 10.0 mph 10.0 mph 86% 0.00 in
04:01 60.0 °F 55.8 °F 29.67 in SSW 8.1 mph 8.1 mph 86% 0.00 in
04:06 60.0 °F 55.8 °F 29.65 in SSW 11.5 mph 11.5 mph 86% 0.00 in
04:11 60.2 °F 55.7 °F 29.65 in South 9.0 mph 9.0 mph 85% 0.00 in
04:16 60.3 °F 55.8 °F 29.64 in SSW 10.4 mph 10.4 mph 85% 0.00 in
04:22 60.7 °F 55.8 °F 29.65 in SSE 12.7 mph 12.7 mph 84% 0.00 in
04:27 60.9 °F 56.0 °F 29.64 in South 13.8 mph 13.8 mph 84% 0.00 in
04:32 60.9 °F 56.4 °F 29.63 in SSE 13.8 mph 13.8 mph 85% 0.00 in
04:37 60.9 °F 56.4 °F 29.63 in SSW 21.9 mph 21.9 mph 85% 0.00 in
04:42 60.9 °F 56.7 °F 29.64 in SSE 9.2 mph 9.2 mph 86% 0.00 in
04:47 60.8 °F 56.6 °F 29.63 in South 11.5 mph 11.5 mph 86% 0.00 in
04:53 60.8 °F 56.6 °F 29.64 in South 10.0 mph 10.0 mph 86% 0.00 in
04:58 60.9 °F 56.7 °F 29.65 in South 12.7 mph 12.7 mph 86% 0.00 in
05:03 60.9 °F 56.7 °F 29.65 in South 18.4 mph 18.4 mph 86% 0.00 in
05:08 60.8 °F 56.6 °F 29.64 in South 9.2 mph 9.2 mph 86% 0.00 in
05:13 60.6 °F 56.4 °F 29.65 in South 6.9 mph 6.9 mph 86% 0.00 in
05:18 60.5 °F 56.6 °F 29.65 in SSE 9.0 mph 9.0 mph 87% 0.00 in
05:23 60.5 °F 56.6 °F 29.64 in SSW 16.1 mph 16.1 mph 87% 0.00 in
05:28 60.6 °F 56.7 °F 29.64 in South 10.4 mph 10.4 mph 87% 0.00 in
05:33 60.7 °F 56.8 °F 29.65 in SW 11.5 mph 11.5 mph 87% 0.00 in
05:38 60.7 °F 56.8 °F 29.64 in SSE 9.2 mph 9.2 mph 87% 0.00 in
05:43 60.6 °F 56.7 °F 29.65 in SSW 11.5 mph 11.5 mph 87% 0.00 in
05:48 60.7 °F 56.8 °F 29.64 in South 12.7 mph 12.7 mph 87% 0.00 in
05:53 60.7 °F 56.8 °F 29.64 in South 11.5 mph 11.5 mph 87% 0.00 in
05:58 60.5 °F 56.6 °F 29.63 in WSW 9.2 mph 9.4 mph 87% 0.00 in
06:03 60.5 °F 56.9 °F 29.63 in SSW 16.1 mph 16.1 mph 88% 0.00 in
06:09 60.5 °F 56.9 °F 29.63 in South 11.5 mph 11.5 mph 88% 0.00 in
06:14 60.5 °F 56.9 °F 29.63 in SSE 11.5 mph 11.5 mph 88% 0.00 in
06:19 60.5 °F 56.9 °F 29.63 in South 17.3 mph 17.3 mph 88% 0.00 in
06:24 60.5 °F 56.9 °F 29.63 in SSW 11.5 mph 11.5 mph 88% 0.00 in
06:29 60.5 °F 56.9 °F 29.63 in South 11.5 mph 11.5 mph 88% 0.00 in
06:34 60.5 °F 56.9 °F 29.63 in SSW 16.1 mph 16.1 mph 88% 0.00 in
06:39 60.6 °F 57.0 °F 29.63 in South 11.5 mph 11.5 mph 88% 0.00 in
06:45 60.7 °F 57.1 °F 29.63 in South 12.0 mph 12.0 mph 88% 0.00 in
06:50 60.9 °F 57.0 °F 29.63 in SSE 9.2 mph 9.2 mph 87% 0.00 in
06:55 60.9 °F 57.0 °F 29.62 in SSW 6.9 mph 6.9 mph 87% 0.00 in
07:00 60.9 °F 57.0 °F 29.62 in SW 8.1 mph 8.1 mph 87% 0.00 in
07:05 61.0 °F 57.1 °F 29.62 in South 10.4 mph 10.4 mph 87% 0.00 in
07:10 61.0 °F 57.1 °F 29.62 in SSW 16.1 mph 16.1 mph 87% 0.00 in
07:15 61.1 °F 56.9 °F 29.62 in SSW 9.0 mph 9.0 mph 86% 0.00 in
07:20 61.2 °F 57.0 °F 29.62 in SSW 12.7 mph 12.7 mph 86% 0.00 in
07:26 61.3 °F 57.1 °F 29.62 in South 11.5 mph 11.5 mph 86% 0.00 in
07:31 61.4 °F 56.8 °F 29.62 in South 8.1 mph 8.1 mph 85% 0.00 in
07:36 61.4 °F 56.8 °F 29.62 in SSW 9.2 mph 9.2 mph 85% 0.00 in
07:41 61.6 °F 57.0 °F 29.62 in SW 10.4 mph 10.4 mph 85% 0.00 in
07:46 61.7 °F 56.8 °F 29.61 in SSE 14.0 mph 14.0 mph 84% 0.00 in
07:51 61.8 °F 56.9 °F 29.62 in SW 11.5 mph 11.5 mph 84% 0.00 in
07:56 62.0 °F 56.8 °F 29.62 in SSW 11.5 mph 11.5 mph 83% 0.00 in
08:01 62.2 °F 56.6 °F 29.62 in South 12.7 mph 12.7 mph 82% 0.00 in
08:06 62.2 °F 56.6 °F 29.62 in South 6.9 mph 6.9 mph 82% 0.00 in
08:11 62.2 °F 56.3 °F 29.62 in SSE 11.0 mph 11.0 mph 81% 0.00 in
08:16 62.3 °F 56.4 °F 29.63 in SW 10.4 mph 10.4 mph 81% 0.00 in
08:22 62.3 °F 56.0 °F 29.63 in SSW 10.4 mph 10.4 mph 80% 0.00 in
08:27 62.4 °F 55.8 °F 29.63 in SW 9.2 mph 9.2 mph 79% 0.00 in
08:32 62.5 °F 55.9 °F 29.62 in South 8.1 mph 8.1 mph 79% 0.00 in
08:37 62.6 °F 55.6 °F 29.63 in SW 8.1 mph 8.1 mph 78% 0.00 in
08:42 62.6 °F 55.3 °F 29.63 in WSW 6.9 mph 6.9 mph 77% 0.00 in
08:47 62.7 °F 55.4 °F 29.63 in South 7.0 mph 7.9 mph 77% 0.00 in
08:53 62.7 °F 55.0 °F 29.64 in SW 8.1 mph 8.1 mph 76% 0.00 in
08:58 62.6 °F 54.9 °F 29.64 in SW 6.0 mph 6.0 mph 76% 0.00 in
09:03 62.7 °F 54.7 °F 29.64 in WSW 8.1 mph 8.1 mph 75% 0.00 in
09:08 62.8 °F 54.8 °F 29.64 in SSW 9.2 mph 9.2 mph 75% 0.00 in
09:13 62.9 °F 54.5 °F 29.64 in SSW 9.2 mph 9.2 mph 74% 0.00 in
09:18 63.0 °F 54.2 °F 29.64 in WSW 12.7 mph 12.7 mph 73% 0.00 in
09:24 63.1 °F 54.3 °F 29.64 in SSW 11.5 mph 11.5 mph 73% 0.00 in
09:29 63.1 °F 53.9 °F 29.64 in SW 3.5 mph 3.5 mph 72% 0.00 in
09:34 63.1 °F 53.9 °F 29.64 in South 8.1 mph 8.1 mph 72% 0.00 in
09:39 63.1 °F 53.5 °F 29.64 in WNW 8.1 mph 8.1 mph 71% 0.00 in
09:44 63.2 °F 52.9 °F 29.64 in WSW 11.5 mph 11.5 mph 69% 0.00 in
09:49 63.2 °F 53.3 °F 29.65 in SSW 9.2 mph 9.2 mph 70% 0.00 in
09:50 63.2 °F 53.3 °F 29.65 in SSW 9.2 mph 9.2 mph 70% 0.00 in
09:55 63.2 °F 52.9 °F 29.65 in SSW 8.0 mph 8.0 mph 69% 0.00 in
10:00 63.2 °F 52.9 °F 29.65 in West 5.8 mph 5.8 mph 69% 0.00 in
10:05 63.1 °F 52.8 °F 29.65 in SSW 3.5 mph 3.7 mph 69% 0.00 in
10:10 63.2 °F 52.9 °F 29.66 in SSW 6.9 mph 6.9 mph 69% 0.00 in
10:16 63.2 °F 52.5 °F 29.66 in South 6.9 mph 6.9 mph 68% 0.00 in
10:21 63.2 °F 52.5 °F 29.67 in West 6.9 mph 6.9 mph 68% 0.00 in
10:26 63.3 °F 52.2 °F 29.67 in WSW 5.0 mph 5.0 mph 67% 0.00 in
10:31 63.4 °F 51.4 °F 29.68 in NNW 10.4 mph 10.4 mph 65% 0.00 in
10:36 63.5 °F 51.1 °F 29.68 in SW 3.5 mph 3.5 mph 64% 0.00 in
10:41 63.8 °F 50.5 °F 29.68 in SSW 5.8 mph 5.8 mph 62% 0.00 in
10:46 64.0 °F 50.3 °F 29.67 in West 6.9 mph 6.9 mph 61% 0.00 in
10:51 64.3 °F 49.2 °F 29.67 in NW 5.0 mph 5.0 mph 58% 0.00 in
10:56 64.6 °F 47.1 °F 29.68 in SW 8.1 mph 8.1 mph 53% 0.00 in
11:01 64.8 °F 46.2 °F 29.68 in WSW 9.2 mph 9.2 mph 51% 0.00 in
11:06 64.9 °F 45.3 °F 29.68 in WNW 5.8 mph 5.8 mph 49% 0.00 in
11:12 64.9 °F 44.7 °F 29.67 in South 5.0 mph 5.0 mph 48% 0.00 in
11:17 64.9 °F 43.6 °F 29.67 in SSW 12.7 mph 12.7 mph 46% 0.00 in
11:22 65.1 °F 43.8 °F 29.67 in West 9.2 mph 9.2 mph 46% 0.00 in
11:28 65.2 °F 43.3 °F 29.68 in North 9.2 mph 9.2 mph 45% 0.00 in
11:33 65.2 °F 43.3 °F 29.68 in West 5.8 mph 5.8 mph 45% 0.00 in
11:39 65.2 °F 42.7 °F 29.68 in ESE 12.7 mph 12.7 mph 44% 0.00 in
11:44 65.2 °F 42.7 °F 29.68 in WNW 6.9 mph 6.9 mph 44% 0.00 in
11:49 65.1 °F 42.6 °F 29.68 in SW 6.9 mph 6.9 mph 44% 0.00 in
11:55 65.2 °F 42.7 °F 29.69 in WNW 3.5 mph 3.5 mph 44% 0.00 in
12:00 65.2 °F 41.5 °F 29.68 in SSE 5.8 mph 5.8 mph 42% 0.00 in
12:05 65.1 °F 41.4 °F 29.68 in NW 8.1 mph 8.1 mph 42% 0.00 in
12:10 65.0 °F 41.3 °F 29.68 in WSW 4.6 mph 4.6 mph 42% 0.00 in
12:15 65.0 °F 40.7 °F 29.68 in West 6.9 mph 6.9 mph 41% 0.00 in
12:20 65.0 °F 41.3 °F 29.67 in West 8.1 mph 8.1 mph 42% 0.00 in
12:26 65.1 °F 40.2 °F 29.67 in WSW 3.5 mph 3.5 mph 40% 0.00 in
12:31 65.1 °F 37.5 °F 29.67 in SW 4.6 mph 4.6 mph 36% 0.00 in
12:36 65.1 °F 37.5 °F 29.68 in SSW 4.6 mph 4.6 mph 36% 0.00 in
12:41 65.1 °F 36.8 °F 29.68 in SSW 5.8 mph 5.8 mph 35% 0.00 in
12:46 65.1 °F 37.5 °F 29.68 in NW 2.3 mph 2.3 mph 36% 0.00 in
12:51 65.1 °F 36.8 °F 29.67 in WSW 3.5 mph 3.5 mph 35% 0.00 in
12:56 65.2 °F 36.8 °F 29.67 in WSW 4.6 mph 4.6 mph 35% 0.00 in
13:01 65.3 °F 36.2 °F 29.67 in South 8.0 mph 8.0 mph 34% 0.00 in
13:07 65.3 °F 36.2 °F 29.67 in WSW 8.1 mph 8.1 mph 34% 0.00 in
13:12 65.6 °F 35.7 °F 29.66 in SE 6.0 mph 6.0 mph 33% 0.00 in
13:17 66.1 °F 35.4 °F 29.66 in SW 3.5 mph 3.5 mph 32% 0.00 in
13:22 67.1 °F 35.4 °F 29.67 in WSW 7.0 mph 7.0 mph 31% 0.00 in
13:27 67.3 °F 34.8 °F 29.67 in North 5.8 mph 5.8 mph 30% 0.00 in
13:32 67.0 °F 35.3 °F 29.67 in WSW 8.1 mph 8.1 mph 31% 0.00 in
13:37 66.5 °F 35.7 °F 29.67 in West 4.6 mph 4.6 mph 32% 0.00 in
13:42 66.3 °F 34.7 °F 29.67 in West 3.5 mph 3.5 mph 31% 0.00 in
13:48 65.9 °F 36.0 °F 29.67 in West 3.5 mph 3.5 mph 33% 0.00 in
13:53 65.5 °F 36.4 °F 29.67 in NW 3.5 mph 3.5 mph 34% 0.00 in
13:58 65.1 °F 36.0 °F 29.66 in NW 3.5 mph 3.5 mph 34% 0.00 in
14:03 64.5 °F 36.2 °F 29.67 in WNW 5.0 mph 5.0 mph 35% 0.00 in
14:08 64.1 °F 35.9 °F 29.67 in WSW 4.6 mph 4.6 mph 35% 0.00 in
14:13 63.6 °F 35.4 °F 29.67 in ENE 11.5 mph 11.5 mph 35% 0.00 in
14:18 63.1 °F 35.0 °F 29.67 in North 6.9 mph 6.9 mph 35% 0.00 in
14:24 62.9 °F 35.5 °F 29.67 in WNW 7.0 mph 7.0 mph 36% 0.00 in
14:29 62.5 °F 35.2 °F 29.68 in WNW 3.5 mph 3.5 mph 36% 0.00 in
14:34 62.3 °F 35.0 °F 29.68 in SW 4.6 mph 4.6 mph 36% 0.00 in
14:39 62.0 °F 35.4 °F 29.68 in NNW 3.5 mph 3.5 mph 37% 0.00 in
14:44 61.8 °F 35.2 °F 29.68 in WNW 1.2 mph 1.2 mph 37% 0.00 in
14:49 61.5 °F 35.6 °F 29.68 in NW 3.5 mph 3.5 mph 38% 0.00 in
14:54 61.2 °F 36.0 °F 29.68 in NNW 6.9 mph 6.9 mph 39% 0.00 in
14:59 60.8 °F 38.7 °F 29.68 in NNE 4.6 mph 4.6 mph 44% 0.00 in
15:00 60.7 °F 40.3 °F 29.68 in WNW 3.5 mph 3.5 mph 47% 0.00 in
15:05 60.2 °F 42.5 °F 29.68 in NNE 1.2 mph 1.2 mph 52% 0.00 in
15:11 59.4 °F 43.2 °F 29.68 in WNW 3.5 mph 3.5 mph 55% 0.00 in
15:16 58.8 °F 44.0 °F 29.68 in NNW 3.5 mph 3.5 mph 58% 0.00 in
15:22 58.4 °F 44.1 °F 29.69 in WNW 2.3 mph 2.3 mph 59% 0.00 in
15:27 58.1 °F 44.3 °F 29.69 in NNE 5.8 mph 5.8 mph 60% 0.00 in
15:32 57.8 °F 44.0 °F 29.69 in WNW 6.9 mph 6.9 mph 60% 0.00 in
15:37 57.6 °F 44.2 °F 29.70 in WNW 5.8 mph 5.8 mph 61% 0.00 in
15:42 57.3 °F 44.4 °F 29.70 in NNW 4.6 mph 4.6 mph 62% 0.00 in
15:48 57.1 °F 44.2 °F 29.69 in WNW 2.3 mph 2.3 mph 62% 0.00 in
15:53 57.0 °F 44.1 °F 29.69 in NNW 3.5 mph 3.5 mph 62% 0.00 in
15:58 56.9 °F 44.4 °F 29.70 in NNW 1.2 mph 1.2 mph 63% 0.00 in
16:03 56.9 °F 44.4 °F 29.70 in NNW 3.0 mph 3.0 mph 63% 0.00 in
16:08 56.8 °F 44.3 °F 29.70 in NNW 3.5 mph 3.5 mph 63% 0.00 in
16:14 56.7 °F 44.7 °F 29.70 in NW 3.5 mph 3.5 mph 64% 0.00 in
16:19 56.6 °F 44.6 °F 29.71 in WNW 4.6 mph 4.6 mph 64% 0.00 in
16:24 56.4 °F 44.8 °F 29.72 in WNW 3.5 mph 3.5 mph 65% 0.00 in
16:29 56.2 °F 44.6 °F 29.72 in NW 3.5 mph 3.5 mph 65% 0.00 in
16:34 56.1 °F 44.9 °F 29.72 in West 3.5 mph 3.5 mph 66% 0.00 in
16:39 56.0 °F 44.8 °F 29.73 in NW 2.3 mph 2.3 mph 66% 0.00 in
16:44 55.9 °F 44.7 °F 29.73 in West 2.3 mph 2.3 mph 66% 0.00 in
16:49 55.7 °F 44.9 °F 29.73 in NW 2.3 mph 2.3 mph 67% 0.00 in
16:54 55.5 °F 44.3 °F 29.73 in North 3.0 mph 3.0 mph 66% 0.00 in
16:59 55.2 °F 44.0 °F 29.74 in NNW 3.5 mph 3.5 mph 66% 0.00 in
17:04 54.9 °F 44.1 °F 29.74 in NNW 5.0 mph 5.0 mph 67% 0.00 in
17:09 54.7 °F 44.0 °F 29.74 in NNW 3.5 mph 3.5 mph 67% 0.00 in
17:15 54.5 °F 44.2 °F 29.74 in West 2.3 mph 2.3 mph 68% 0.00 in
17:20 54.3 °F 44.0 °F 29.74 in North 3.5 mph 3.5 mph 68% 0.00 in
17:25 54.2 °F 43.9 °F 29.74 in NNE 4.0 mph 4.0 mph 68% 0.00 in
17:30 54.0 °F 44.1 °F 29.74 in NNW 9.2 mph 9.2 mph 69% 0.00 in
17:35 53.9 °F 44.0 °F 29.74 in SE 3.5 mph 3.5 mph 69% 0.00 in
17:40 53.8 °F 44.2 °F 29.75 in NNE 4.0 mph 4.0 mph 70% 0.00 in
17:46 53.7 °F 44.1 °F 29.75 in North 5.8 mph 5.8 mph 70% 0.00 in
17:51 53.6 °F 44.0 °F 29.76 in North 3.5 mph 3.5 mph 70% 0.00 in
17:56 53.5 °F 44.3 °F 29.76 in North 5.8 mph 5.8 mph 71% 0.00 in
18:01 53.4 °F 44.2 °F 29.76 in North 3.5 mph 3.5 mph 71% 0.00 in
18:07 53.3 °F 44.1 °F 29.77 in NNW 6.0 mph 6.0 mph 71% 0.00 in
18:12 53.2 °F 44.0 °F 29.77 in North 2.3 mph 2.3 mph 71% 0.00 in
18:17 53.1 °F 43.6 °F 29.78 in North 4.6 mph 4.6 mph 70% 0.00 in
18:22 53.0 °F 43.5 °F 29.78 in NW 3.5 mph 3.5 mph 70% 0.00 in
18:27 52.8 °F 42.5 °F 29.78 in NNE 5.8 mph 5.8 mph 68% 0.00 in
18:33 52.6 °F 41.2 °F 29.79 in North 3.5 mph 3.5 mph 65% 0.00 in
18:38 52.3 °F 40.5 °F 29.79 in NNW 8.1 mph 8.1 mph 64% 0.00 in
18:43 52.1 °F 39.9 °F 29.80 in North 8.1 mph 8.1 mph 63% 0.00 in
18:49 51.9 °F 38.4 °F 29.81 in NNW 4.0 mph 4.0 mph 60% 0.00 in
18:54 51.6 °F 37.3 °F 29.82 in North 5.8 mph 5.8 mph 58% 0.00 in
18:59 51.5 °F 36.8 °F 29.82 in WNW 4.6 mph 4.6 mph 57% 0.00 in
19:04 51.3 °F 35.7 °F 29.82 in North 6.9 mph 6.9 mph 55% 0.00 in
19:10 51.1 °F 35.0 °F 29.83 in North 9.2 mph 9.2 mph 54% 0.00 in
19:15 51.0 °F 35.4 °F 29.83 in North 4.6 mph 4.6 mph 55% 0.00 in
19:20 50.7 °F 35.6 °F 29.83 in North 5.8 mph 5.8 mph 56% 0.00 in
19:25 50.4 °F 34.8 °F 29.83 in North 10.4 mph 10.4 mph 55% 0.00 in
19:30 50.1 °F 34.5 °F 29.84 in North 8.1 mph 8.1 mph 55% 0.00 in
19:35 49.9 °F 34.4 °F 29.84 in North 10.4 mph 10.4 mph 55% 0.00 in
19:41 49.6 °F 34.5 °F 29.85 in NNE 4.0 mph 4.0 mph 56% 0.00 in
19:46 49.4 °F 33.9 °F 29.85 in North 4.6 mph 4.6 mph 55% 0.00 in
19:51 49.2 °F 34.2 °F 29.85 in NNE 8.1 mph 8.1 mph 56% 0.00 in
19:56 49.1 °F 34.1 °F 29.84 in North 6.9 mph 6.9 mph 56% 0.00 in
20:01 49.0 °F 33.5 °F 29.85 in North 11.5 mph 11.5 mph 55% 0.00 in
20:06 49.0 °F 33.5 °F 29.85 in NNE 13.8 mph 13.8 mph 55% 0.00 in
20:12 48.8 °F 33.8 °F 29.86 in North 4.6 mph 4.6 mph 56% 0.00 in
20:17 48.5 °F 33.9 °F 29.86 in North 3.5 mph 3.5 mph 57% 0.00 in
20:22 48.3 °F 33.8 °F 29.87 in North 5.8 mph 5.8 mph 57% 0.00 in
20:27 48.0 °F 33.9 °F 29.86 in NE 12.0 mph 12.0 mph 58% 0.00 in
20:32 47.8 °F 33.7 °F 29.87 in North 11.5 mph 11.5 mph 58% 0.00 in
20:37 47.7 °F 34.1 °F 29.88 in North 3.5 mph 3.5 mph 59% 0.00 in
20:42 47.4 °F 34.2 °F 29.88 in NNE 10.4 mph 10.4 mph 60% 0.00 in
20:47 47.0 °F 34.6 °F 29.89 in North 9.2 mph 9.2 mph 62% 0.00 in
20:52 46.6 °F 34.7 °F 29.89 in North 8.1 mph 8.1 mph 63% 0.00 in
20:57 46.3 °F 34.8 °F 29.90 in NNE 9.2 mph 9.2 mph 64% 0.00 in
21:02 46.1 °F 34.6 °F 29.90 in NNW 8.1 mph 8.1 mph 64% 0.00 in
21:07 45.9 °F 34.4 °F 29.90 in North 16.1 mph 16.1 mph 64% 0.00 in
21:12 45.6 °F 34.5 °F 29.90 in North 12.7 mph 12.7 mph 65% 0.00 in
21:18 45.2 °F 34.5 °F 29.91 in North 15.0 mph 15.0 mph 66% 0.00 in
21:23 45.0 °F 34.7 °F 29.92 in North 11.5 mph 11.5 mph 67% 0.00 in
21:28 44.7 °F 34.8 °F 29.92 in NNE 16.1 mph 16.1 mph 68% 0.00 in
21:33 44.4 °F 34.9 °F 29.92 in North 12.7 mph 12.7 mph 69% 0.00 in
21:38 44.1 °F 34.9 °F 29.93 in North 16.1 mph 16.1 mph 70% 0.00 in
21:43 43.6 °F 34.8 °F 29.94 in NE 11.5 mph 11.5 mph 71% 0.00 in
21:48 42.8 °F 34.0 °F 29.94 in North 17.3 mph 17.3 mph 71% 0.00 in
21:53 42.3 °F 33.9 °F 29.94 in NNE 15.0 mph 15.0 mph 72% 0.00 in
21:58 41.9 °F 33.9 °F 29.94 in North 13.8 mph 13.8 mph 73% 0.00 in
22:03 41.7 °F 34.0 °F 29.95 in North 11.5 mph 11.5 mph 74% 0.00 in
22:08 41.5 °F 33.8 °F 29.95 in NNE 9.2 mph 9.2 mph 74% 0.00 in
22:14 41.3 °F 34.0 °F 29.95 in NNE 12.7 mph 12.7 mph 75% 0.00 in
22:19 41.1 °F 33.8 °F 29.96 in NE 16.1 mph 16.1 mph 75% 0.00 in
22:25 40.6 °F 33.6 °F 29.97 in North 11.5 mph 11.5 mph 76% 0.00 in
22:30 40.4 °F 33.4 °F 29.97 in North 9.2 mph 9.2 mph 76% 0.00 in
22:35 40.2 °F 33.6 °F 29.98 in ENE 9.2 mph 9.2 mph 77% 0.00 in
22:40 40.0 °F 33.4 °F 29.98 in NNE 13.8 mph 13.8 mph 77% 0.00 in
22:45 39.8 °F 33.5 °F 29.98 in NNW 16.1 mph 16.1 mph 78% 0.00 in
22:51 39.8 °F 33.5 °F 29.99 in NNW 9.2 mph 9.2 mph 78% 0.00 in
22:56 39.7 °F 33.4 °F 29.99 in NNW 13.8 mph 13.8 mph 78% 0.00 in
23:02 39.6 °F 33.6 °F 29.99 in NW 12.7 mph 12.7 mph 79% 0.00 in
23:07 39.6 °F 33.6 °F 30.00 in NNW 11.5 mph 11.5 mph 79% 0.00 in
23:13 39.5 °F 33.5 °F 30.00 in NNE 8.1 mph 8.1 mph 79% 0.00 in
23:18 39.4 °F 33.7 °F 30.01 in NW 13.8 mph 13.8 mph 80% 0.00 in
23:23 39.3 °F 33.6 °F 30.02 in North 11.5 mph 11.5 mph 80% 0.00 in
23:29 39.1 °F 33.5 °F 30.03 in North 11.5 mph 11.5 mph 80% 0.00 in
23:35 38.8 °F 33.2 °F 30.03 in North 15.0 mph 15.0 mph 80% 0.00 in
23:40 38.4 °F 32.8 °F 30.03 in West 13.8 mph 13.8 mph 80% 0.00 in
23:45 38.0 °F 32.1 °F 30.03 in NNW 11.5 mph 11.5 mph 79% 0.00 in
23:50 37.8 °F 31.9 °F 30.03 in North 16.1 mph 16.1 mph 79% 0.00 in
23:52 37.5 °F 31.6 °F 30.03 in NNE 18.4 mph 18.4 mph 79% 0.00 in
23:57 37.1 °F 31.2 °F 30.05 in North 11.5 mph 11.5 mph 79% 0.00 in
Live Lenexa Weather
Compliments of Weather Underground - 1.75 mb